Airfield :
LOGIN :

Register | Disclaimer

   EN    FR    IT 

 










Legend :    VFR   Marginal VFR   IFR   Intensive IFR   Very Intensive IFR
Visi :
Ceiling :
>= 8 km
>= 3000ft
5 to 8 km
1000 to 3000 ft
1500m to 5 km
500 to 1000 ft
800 to 1500m
200 to 500 ft
< 800m
< 200 ft
Symbols :   Thunderstorms  Fog  Heavy snow  Heavy precipitations  Wind > 20 kt
SIGMETs :     Misc.  Thunderstorms  Icing  Turbulence  Mountain Waves  Volcanic Ashes






- Airport Elevation : 1548 ft


LKNA - Náměšť Air Base

CURRENT METAR :
  • 231430Z 31012KT 9999 -DZ OVC009 02/00 Q1029 NOSIG RMK GRN GRN

EXPIRED METARs :
  • 231400Z 31013KT 9999 BKN009 OVC016 02/M00 Q1029 NOSIG RMK GRN GRN
  • 231330Z 31013KT 9999 OVC010 02/M00 Q1029 NOSIG RMK GRN GRN
  • 231300Z 31012KT 9999 OVC009 02/00 Q1029 NOSIG RMK GRN GRN
  • 231230Z 31012KT 9999 BKN007 OVC016 02/00 Q1029 NOSIG RMK GRN GRN
  • 231211Z 31012KT 9999 OVC006 02/00 Q1029 RMK YLO
  • 231200Z 31012KT 9999 -DZ BKN004 OVC014 01/00 Q1029 NOSIG RMK YLO YLO

TAF TAF LKNA
Valid from the 23 at 12:00 until the 24 at 12:00 UTC


231100Z 2312/2412 31012KT 9999 BKN010
TEMPO 2312/2321 5000 DZ OVC004
PROB30
TEMPO 2312/2321 3000 SNRA OVC002
BECMG 2321/2323 15006KT 4000 BR OVC003
TEMPO 2321/2412 1200 SN BR OVC002



MET'MAP, your aeronautical weather chart ! - Copyright ORBIFLY December 2007 - Disclaimer

ORBIFLY MET'MAP TEAM :

Programming & Development : Alexandra Zaïnal
Concept & original design : Baudouin d'Aumeries
Assistance for programming : Marc-Olivier Méhu
Technical & hardware support : Manuel Goepfert

Contact : metmap@orbifly.com




SOURCES & CREDITS :

   NOAA